Duckwater, Nevada Weather observations

Data are for 10 minute period ending at time listed.
 Day   Time   Solar   Ave.   Ave.  Ave.  Vector  Max.   Baro.   Total    
  of    of     Rad.   Air    Rel.  Wind   Wind   Wind  Press.  Precip.   
Year   Day            Temp.  Hum.  Speed  Dir.   Gust                    
2016   (PST)   w/m2    F      %     mph   deg.    mph    mb.     in.    
-----------------------------------------------------------------------
 273    6:10     18   49.3    72    1.4   339     3.0   839.9   0.00  
 273    6:20     31   50.0    71    2.2   333     6.3   839.9   0.00  
 273    6:30    138   51.8    68    3.2   359     5.7   840.0   0.00  
 273    6:40    203   55.8    61    3.7     4     5.6   840.0   0.00  
 273    6:50    250   59.1    56    2.1    25     4.5   840.1   0.00  
 273    7:00    269   62.6    50    1.0    16     3.4   840.1   0.00  
 273    7:10    339   66.4    43    0.1     7     0.7   840.2   0.00  
 273    7:20    356   65.4    45    1.4   283     2.8   840.2   0.00  
 273    7:30    331   65.0    45    2.2   129     6.2   840.2   0.00  
 273    7:40    325   64.5    46    3.4   175     5.6   840.2   0.00  
 273    7:50    400   64.3    46    4.5   181     8.0   840.3   0.00  
 273    8:00    432   64.8    45    4.8   162     8.4   840.3   0.00  
 273    8:10    474   65.4    43    6.1   142     9.1   840.4   0.00  
 273    8:20    501   65.5    43    6.4   147     9.3   840.4   0.00  
 273    8:30    526   65.4    43    5.9   156     9.1   840.5   0.00  
 273    8:40    552   66.3    42    6.0   155    11.0   840.6   0.00  
 273    8:50    533   67.1    42    6.1   148     9.9   840.6   0.00  
 273    9:00    557   67.4    41    8.4   158    13.1   840.6   0.00  
 273    9:10    604   68.3    40    8.0   146    14.0   840.6   0.00  
 273    9:20    627   69.1    38    7.8   148    12.8   840.5   0.00  
 273    9:30    647   69.7    37    7.7   148    12.1   840.5   0.00  
 273    9:40    667   69.8    37   10.5   142    14.8   840.4   0.00  
 273    9:50    690   70.5    36    9.5   151    15.4   840.3   0.00  
 273   10:00    721   71.2    34    8.0   149    11.8   840.2   0.00  
 273   10:10    744   72.4    33    9.6   146    14.8   840.1   0.00  
 273   10:20    809   72.8    32   11.1   146    20.0   840.0   0.00  
 273   10:30    897   73.2    32   11.5   155    16.8   839.9   0.00  
 273   10:40    955   74.0    31   10.8   141    16.9   839.8   0.00  
 273   10:50    979   74.9    30   12.3   157    18.6   839.7   0.00  
 273   11:00    880   74.6    30   10.6   148    18.2   839.6   0.00  
 273   11:10    415   73.7    30   10.4   148    17.8   839.6   0.00  
 273   11:20    182   71.6    32    8.1   191    16.0   839.6   0.00  
 273   11:30    133   70.5    32    3.4   212     7.3   839.6   0.00  
 273   11:40    138   70.3    34    2.5   237    10.6   839.5   0.00  
 273   11:50    141   70.5    34    3.4   217    10.1   839.3   0.00  
 273   12:00    130   70.4    35    2.8   134    12.9   839.1   0.00  
 273   12:10    392   71.5    33    7.1   183    17.0   838.9   0.00  
 273   12:20    742   73.2    32    7.1   213    19.9   838.8   0.00  
 273   12:30    933   76.5    28   10.0   184    24.5   838.6   0.00  
 273   12:40    743   77.0    27   12.0   172    20.2   838.6   0.00  
 273   12:50    694   74.9    30   12.9   152    20.3   838.6   0.00  
 273   13:00    787   76.4    28   11.9   153    18.3   838.6   0.00  
 273   13:10    788   76.3    28   11.1   144    17.5   838.5   0.00  
 273   13:20    708   76.7    28   12.0   151    19.8   838.5   0.00  
 273   13:30    728   76.4    28   12.1   149    20.5   838.4   0.00  
 273   13:40    657   77.0    27   11.5   152    19.2   838.4   0.00  
 273   13:50    714   76.5    27   13.4   147    20.0   838.3   0.00  
 273   14:00    450   75.7    28   13.0   150    21.9   838.2   0.00  
 273   14:10    620   76.4    28   12.4   170    20.2   838.1   0.00  
 273   14:20    589   76.3    28   12.5   166    18.8   838.2   0.00  
 273   14:30    555   76.5    27   11.3   154    19.1   838.1   0.00  
 273   14:40    521   76.4    27   12.6   153    16.7   838.1   0.00  
 273   14:50    491   75.8    27   12.5   150    19.0   838.0   0.00  
 273   15:00    468   75.8    27   12.1   150    18.0   838.0   0.00  
 273   15:10    419   74.9    28   12.4   143    18.0   837.9   0.00  
 273   15:20    248   74.6    29   11.7   154    17.0   837.9   0.00  
 273   15:30    154   73.3    30   11.8   159    19.8   837.8   0.00  
 273   15:40    177   73.4    30   11.0   156    17.5   837.7   0.00  
 273   15:50    266   73.5    30   10.7   143    15.9   837.7   0.00  
 273   16:00    308   75.5    28   10.6   155    15.6   837.7   0.00  
 273   16:10     94   73.5    30   11.2   154    15.7   837.8   0.00  
 273   16:20     34   71.2    32    9.4   153    14.2   837.8   0.00  
 273   16:30     28   70.5    32    8.5   151    13.8   837.7   0.00  
 273   16:40     25   70.1    32    7.8   149    10.4   837.8   0.00  
 273   16:50     18   69.9    32    7.8   141    11.5   837.7   0.00  
 273   17:00     13   69.9    32    6.9   141    10.6   837.7   0.00  
 273   17:10      8   69.7    32    5.7   143     9.9   837.8   0.00  
 273   17:20      6   69.2    32    6.2   149     8.7   837.8   0.00  
 273   17:30      4   68.7    33    4.8   143     7.2   837.8   0.00  
 273   17:40      1   68.4    33    5.3   153     8.3   837.8   0.00  
 273   17:50      0   67.7    35    4.7   156     8.0   837.9   0.00  
 273   18:00      0   66.8    36    3.2   156     5.3   838.0   0.00  
 273   18:10      0   65.9    38    2.5   140     3.4   838.0   0.00  
 273   18:20      0   65.6    38    2.4   135     3.4   838.1   0.00  
 273   18:30      0   65.9    38    2.7   125     3.9   838.1   0.00  
 273   18:40      0   66.1    38    2.4   118     3.7   838.2   0.00  
 273   18:50      0   63.2    47    2.9   312     5.6   838.4   0.00  
 273   19:00      0   61.0    50    2.4   318     4.4   838.6   0.00  
 273   19:10      0   62.0    48    2.9    20     4.0   838.6   0.00  
 273   19:20      0   62.0    49    2.9    29     4.5   838.6   0.00  
 273   19:30      0   61.6    50    2.2    28     3.7   838.7   0.00  
 273   19:40      0   61.8    48    2.0    38     3.7   838.7   0.00  
 273   19:50      0   61.8    46    3.0    69     4.2   838.7   0.00  
 273   20:00      0   62.2    45    3.1    69     4.5   838.7   0.00  
 273   20:10      0   62.5    45    1.7    79     3.0   838.7   0.00  
 273   20:20      0   61.1    54    3.1   328     6.1   838.8   0.00  
 273   20:30      0   57.9    62    1.4   330     3.5   838.8   0.00  
 273   20:40      0   60.0    54    0.0     0     0.0   838.8   0.00  
 273   20:50      0   61.2    52    0.0   331     0.7   838.8   0.00  
 273   21:00      0   61.5    50    0.0   331     0.9   838.8   0.00  
 273   21:10      0   62.1    50    0.0     0     0.0   838.8   0.00  
 273   21:20      0   61.9    50    0.1   331     1.4   838.8   0.00  
 273   21:30      0   62.4    47    1.3     9     2.5   838.8   0.00  
 273   21:40      0   61.6    52    0.9    67     2.0   838.8   0.00  
 273   21:50      0   60.2    57    0.0     0     0.0   838.9   0.00  
 273   22:00      0   59.8    57    2.2   349     3.0   838.9   0.00  
 273   22:10      0   60.1    55    1.3     4     2.3   839.0   0.00  
 273   22:20      0   60.2    55    1.7    12     2.4   838.9   0.00  
 273   22:30      0   59.4    57    2.2   359     2.9   838.9   0.00  
 273   22:40      0   58.3    59    1.4   353     2.6   838.9   0.00  
 273   22:50      0   58.5    57    0.7   354     1.4   838.9   0.00  
 273   23:00      0   58.8    57    0.3   355     1.2   838.9   0.00  
 273   23:10    999  999.0   999  999.0   999   999.0   999.0  999.00  
 273   23:20    999  999.0   999  999.0   999   999.0   999.0  999.00  
 273   23:30    999  999.0   999  999.0   999   999.0   999.0  999.00  
 273   23:40    999  999.0   999  999.0   999   999.0   999.0  999.00  
 273   23:50    999  999.0   999  999.0   999   999.0   999.0  999.00  
 274    0:00      0   53.4    74    0.6   352     1.8   838.8   0.00  
 274    0:10      0   54.9    67    1.0     3     1.5   838.8   0.00  
 274    0:20      0   56.0    63    1.5     4     2.5   838.8   0.00  
 274    0:30      0   55.4    65    2.9    17     3.6   838.8   0.00  
 274    0:40      0   55.3    65    2.7    11     4.0   838.9   0.00  
 274    0:50      0   54.7    66    2.3     8     3.6   838.9   0.00  
 274    1:00      0   54.2    66    2.3    31     3.5   838.9   0.00  
 274    1:10      0   53.2    69    1.0   258     3.6   838.9   0.00  
 274    1:20      0   52.6    70    0.6   254     3.1   838.9   0.00  
 274    1:30      0   51.3    73    2.3   332     5.9   838.9   0.00  
 274    1:40      0   51.7    72    2.6    10     5.2   838.9   0.00  
 274    1:50      0   51.4    73    3.8     6     4.8   838.9   0.00  
 274    2:00      0   51.4    74    3.9    21     5.2   838.8   0.00  
 274    2:10      0   51.6    74    3.9     6     4.8   838.9   0.00  
 274    2:20      0   51.8    72    3.7    11     5.0   838.9   0.00  
 274    2:30      0   53.0    67    3.5    22     5.0   838.9   0.00  
 274    2:40      0   53.6    66    3.6    23     5.3   838.9   0.00  
 274    2:50      0   52.4    67    2.2   332     4.5   838.9   0.00  
 274    3:00      0   47.5    77    1.8   275     3.4   838.9   0.00  
 274    3:10      0   46.3    81    0.3   341     1.6   839.0   0.00  
 274    3:20      0   46.7    81    0.8   332     2.5   838.9   0.00  
 274    3:30      0   46.9    83    2.4   343     3.9   839.0   0.00  
 274    3:40      0   48.6    78    0.4   352     2.0   839.1   0.00  
 274    3:50      0   50.3    73    0.3   354     2.1   839.1   0.00  
 274    4:00      0   51.8    69    1.9    34     4.9   839.0   0.00  
 274    4:10      0   53.2    63    4.1    66     5.8   839.0   0.00  
 274    4:20      0   52.6    64    3.2   119     5.6   839.0   0.00  
 274    4:30      0   46.5    80    1.7   274     5.4   839.1   0.00  
 274    4:40      0   45.8    83    0.7   275     1.7   839.2   0.00  
 274    4:50      0   46.0    82    0.8   280     2.0   839.3   0.00  
 274    5:00      0   48.1    77    4.0    28     5.8   839.4   0.00  
 274    5:10      0   50.0    73    4.6    28     6.4   839.4   0.00  
 274    5:20      0   51.6    68    4.1    39     5.8   839.4   0.00  
 274    5:30      0   50.5    68    1.5    51     4.6   839.4   0.00  
 274    5:40      4   47.4    76    0.1    40     0.8   839.4   0.00  
 274    5:50      6   47.9    76    0.2    40     1.5   839.5   0.00  
 274    6:00      8   48.4    75    2.4    33     4.4   839.5   0.00  

Return to Duckwater graphs page.


Western Regional Climate Center,wrcc@dri.edu